Time,TemperatureF,DewpointF,PressureIn,WindDirection,WindDirectionDegrees,WindSpeedMPH,WindSpeedGustMPH,Humidity,HourlyPrecipIn,Conditions,Clouds,dailyrainin,SoftwareType,DateUTC
2013-08-18 00:02:00,-999.0,-99.9,30.28,SE,139,0.0,0.0,-999,0.00,,,0.00,,2013-08-18 04:02:00,
2013-08-18 00:13:00,58.0,54.0,30.28,SE,139,0.0,0.0,87,0.00,,,0.00,,2013-08-18 04:13:00,
2013-08-18 00:23:00,58.0,55.0,30.28,SE,138,0.0,0.0,89,0.00,,,0.00,,2013-08-18 04:23:00,
2013-08-18 00:42:00,58.0,55.0,30.28,SE,138,0.0,0.0,89,0.00,,,0.00,,2013-08-18 04:42:00,
2013-08-18 00:53:00,58.0,55.0,30.28,SE,139,0.0,0.0,89,0.00,,,0.00,,2013-08-18 04:53:00,
2013-08-18 01:12:00,57.0,54.0,30.27,SE,138,0.0,0.0,90,0.00,,,0.00,,2013-08-18 05:12:00,
2013-08-18 01:22:00,57.0,54.0,30.27,SE,139,0.0,0.0,91,0.00,,,0.00,,2013-08-18 05:22:00,
2013-08-18 01:42:00,57.0,54.0,30.27,SE,138,0.0,0.0,91,0.00,,,0.00,,2013-08-18 05:42:00,
2013-08-18 01:52:00,57.0,55.0,30.27,SE,139,0.0,0.0,92,0.00,,,0.00,,2013-08-18 05:52:00,
2013-08-18 02:11:00,56.0,54.0,30.27,SE,138,0.0,0.0,92,0.00,,,0.00,,2013-08-18 06:11:00,
2013-08-18 02:21:00,56.0,54.0,30.27,SE,138,0.0,0.0,92,0.00,,,0.00,,2013-08-18 06:21:00,
2013-08-18 02:42:00,56.0,54.0,30.27,SE,139,0.0,0.0,93,0.00,,,0.00,,2013-08-18 06:42:00,
2013-08-18 02:52:00,55.0,53.0,30.27,SE,138,0.0,0.0,93,0.00,,,0.00,,2013-08-18 06:52:00,
2013-08-18 03:11:00,55.0,53.0,30.27,SE,139,0.0,0.0,94,0.00,,,0.00,,2013-08-18 07:11:00,
2013-08-18 03:22:00,55.0,53.0,30.27,SE,138,0.0,0.0,94,0.00,,,0.00,,2013-08-18 07:22:00,
2013-08-18 03:42:00,55.0,53.0,30.27,SE,138,0.0,0.0,94,0.00,,,0.00,,2013-08-18 07:42:00,
2013-08-18 03:52:00,55.0,53.0,30.27,SE,138,0.0,0.0,94,0.00,,,0.00,,2013-08-18 07:52:00,
2013-08-18 04:12:00,55.0,53.0,30.26,SE,138,0.0,0.0,94,0.00,,,0.00,,2013-08-18 08:12:00,
2013-08-18 04:21:00,55.0,53.0,30.26,SE,138,0.0,0.0,94,0.00,,,0.00,,2013-08-18 08:21:00,
2013-08-18 04:52:00,55.0,54.0,30.27,SE,139,0.0,0.0,95,0.00,,,0.00,,2013-08-18 08:52:00,
2013-08-18 05:11:00,55.0,53.0,30.27,SE,139,0.0,0.0,94,0.00,,,0.00,,2013-08-18 09:11:00,
2013-08-18 05:21:00,55.0,53.0,30.26,SE,138,0.0,0.0,94,0.00,,,0.00,,2013-08-18 09:21:00,
2013-08-18 05:43:00,55.0,53.0,30.26,SE,138,0.0,0.0,94,0.00,,,0.00,,2013-08-18 09:43:00,
2013-08-18 05:53:00,55.0,54.0,30.27,SE,138,0.0,0.0,95,0.00,,,0.00,,2013-08-18 09:53:00,
2013-08-18 06:13:00,55.0,54.0,30.27,SE,138,0.0,0.0,95,0.00,,,0.00,,2013-08-18 10:13:00,
2013-08-18 06:23:00,54.0,53.0,30.28,SE,138,0.0,0.0,95,0.00,,,0.00,,2013-08-18 10:23:00,
2013-08-18 06:42:00,54.0,53.0,30.28,SE,139,0.0,0.0,95,0.00,,,0.00,,2013-08-18 10:42:00,
2013-08-18 06:52:00,54.0,53.0,30.29,SE,139,0.0,0.0,95,0.00,,,0.00,,2013-08-18 10:52:00,
2013-08-18 07:11:00,54.0,53.0,30.28,SE,138,0.0,0.0,96,0.00,,,0.00,,2013-08-18 11:11:00,
2013-08-18 07:22:00,54.0,53.0,30.29,SE,138,0.0,0.0,96,0.00,,,0.00,,2013-08-18 11:22:00,
2013-08-18 07:42:00,55.0,54.0,30.29,SE,139,0.0,0.0,96,0.00,,,0.00,,2013-08-18 11:42:00,
2013-08-18 07:52:00,55.0,54.0,30.29,SE,138,0.0,0.0,96,0.00,,,0.00,,2013-08-18 11:52:00,
2013-08-18 08:11:00,55.0,54.0,30.28,SE,139,0.0,0.0,96,0.00,,,0.00,,2013-08-18 12:11:00,
2013-08-18 08:21:00,56.0,55.0,30.29,SE,139,0.0,0.0,96,0.00,,,0.00,,2013-08-18 12:21:00,
2013-08-18 08:42:00,56.0,55.0,30.29,SE,138,0.0,0.0,96,0.00,,,0.00,,2013-08-18 12:42:00,
2013-08-18 08:52:00,57.0,56.0,30.29,SE,138,0.0,0.0,96,0.00,,,0.00,,2013-08-18 12:52:00,
2013-08-18 09:11:00,56.0,55.0,30.28,ESE,118,0.0,0.0,95,0.00,,,0.00,,2013-08-18 13:11:00,
2013-08-18 09:21:00,57.0,56.0,30.28,ESE,112,0.0,0.0,95,0.00,,,0.00,,2013-08-18 13:21:00,
2013-08-18 09:42:00,58.0,57.0,30.28,ESE,112,0.0,0.0,95,0.00,,,0.00,,2013-08-18 13:42:00,
2013-08-18 09:52:00,59.0,58.0,30.29,ESE,112,0.0,0.0,95,0.00,,,0.00,,2013-08-18 13:52:00,
2013-08-18 10:11:00,60.0,58.0,30.29,ESE,111,0.0,0.0,92,0.00,,,0.00,,2013-08-18 14:11:00,
2013-08-18 10:21:00,61.0,58.0,30.29,ESE,111,0.0,0.0,91,0.00,,,0.00,,2013-08-18 14:21:00,
2013-08-18 10:42:00,62.0,59.0,30.29,ESE,111,0.0,0.0,89,0.00,,,0.00,,2013-08-18 14:42:00,
2013-08-18 10:53:00,62.0,58.0,30.29,ENE,66,0.0,1.0,87,0.00,,,0.00,,2013-08-18 14:53:00,
2013-08-18 11:12:00,64.0,59.0,30.29,ENE,65,0.0,0.0,85,0.00,,,0.00,,2013-08-18 15:12:00,
2013-08-18 11:22:00,64.0,59.0,30.29,NE,37,0.0,0.0,85,0.00,,,0.00,,2013-08-18 15:22:00,
2013-08-18 11:43:00,66.0,61.0,30.29,NE,37,0.0,0.0,84,0.00,,,0.00,,2013-08-18 15:43:00,
2013-08-18 11:54:00,68.0,63.0,30.29,North,6,0.0,0.0,83,0.00,,,0.00,,2013-08-18 15:54:00,
2013-08-18 12:13:00,67.0,61.0,30.29,West,266,0.0,0.0,82,0.00,,,0.00,,2013-08-18 16:13:00,
2013-08-18 12:23:00,67.0,61.0,30.29,SW,225,0.0,0.0,81,0.00,,,0.00,,2013-08-18 16:23:00,
2013-08-18 12:42:00,67.0,61.0,30.28,West,264,0.0,3.0,80,0.00,,,0.00,,2013-08-18 16:42:00,
2013-08-18 12:52:00,67.0,61.0,30.28,West,278,1.0,2.0,80,0.00,,,0.00,,2013-08-18 16:52:00,
2013-08-18 13:13:00,68.0,61.0,30.27,South,188,0.0,2.0,79,0.00,,,0.00,,2013-08-18 17:13:00,
2013-08-18 13:24:00,69.0,61.0,30.26,ESE,117,3.0,5.0,75,0.00,,,0.00,,2013-08-18 17:24:00,
2013-08-18 13:42:00,69.0,60.0,30.26,WNW,302,2.0,5.0,72,0.00,,,0.00,,2013-08-18 17:42:00,
2013-08-18 13:52:00,70.0,61.0,30.26,NE,52,1.0,4.0,72,0.00,,,0.00,,2013-08-18 17:52:00,
2013-08-18 14:12:00,71.0,61.0,30.26,WSW,238,1.0,4.0,71,0.00,,,0.00,,2013-08-18 18:12:00,
2013-08-18 14:22:00,70.0,61.0,30.26,SSW,197,1.0,4.0,73,0.00,,,0.00,,2013-08-18 18:22:00,
2013-08-18 14:42:00,71.0,61.0,30.25,SSW,201,1.0,6.0,70,0.00,,,0.00,,2013-08-18 18:42:00,
2013-08-18 14:52:00,71.0,60.0,30.24,SW,222,2.0,6.0,69,0.00,,,0.00,,2013-08-18 18:52:00,
2013-08-18 15:11:00,72.0,60.0,30.23,ENE,58,1.0,6.0,65,0.00,,,0.00,,2013-08-18 19:11:00,
2013-08-18 15:22:00,71.0,59.0,30.23,NE,41,0.0,6.0,67,0.00,,,0.00,,2013-08-18 19:22:00,
2013-08-18 15:42:00,71.0,58.0,30.23,ENE,72,2.0,5.0,63,0.00,,,0.00,,2013-08-18 19:42:00,
2013-08-18 15:52:00,72.0,59.0,30.23,WSW,248,1.0,5.0,64,0.00,,,0.00,,2013-08-18 19:52:00,
2013-08-18 16:12:00,73.0,60.0,30.22,ENE,69,2.0,4.0,63,0.00,,,0.00,,2013-08-18 20:12:00,
2013-08-18 16:22:00,73.0,61.0,30.22,ENE,58,1.0,3.0,66,0.00,,,0.00,,2013-08-18 20:22:00,
2013-08-18 16:52:00,71.0,60.0,30.21,East,97,0.0,4.0,69,0.00,,,0.00,,2013-08-18 20:52:00,
2013-08-18 17:11:00,72.0,61.0,30.21,SSW,211,1.0,3.0,68,0.00,,,0.00,,2013-08-18 21:11:00,
2013-08-18 17:22:00,72.0,60.0,30.21,South,174,1.0,3.0,67,0.00,,,0.00,,2013-08-18 21:22:00,
2013-08-18 17:53:00,72.0,61.0,30.21,SW,215,0.0,2.0,69,0.00,,,0.00,,2013-08-18 21:53:00,
2013-08-18 18:13:00,72.0,61.0,30.20,SSW,198,1.0,4.0,69,0.00,,,0.00,,2013-08-18 22:13:00,
2013-08-18 18:23:00,72.0,61.0,30.20,SSE,158,0.0,1.0,69,0.00,,,0.00,,2013-08-18 22:23:00,
2013-08-18 18:42:00,72.0,61.0,30.19,ESE,103,0.0,1.0,68,0.00,,,0.00,,2013-08-18 22:42:00,
2013-08-18 18:52:00,71.0,60.0,30.19,SW,236,0.0,0.0,69,0.00,,,0.00,,2013-08-18 22:52:00,
2013-08-18 19:11:00,70.0,61.0,30.19,WSW,239,0.0,0.0,73,0.00,,,0.00,,2013-08-18 23:11:00,
2013-08-18 19:22:00,69.0,60.0,30.19,SSW,210,0.0,0.0,74,0.00,,,0.00,,2013-08-18 23:22:00,
2013-08-18 19:42:00,69.0,61.0,30.19,SSW,210,0.0,0.0,77,0.00,,,0.00,,2013-08-18 23:42:00,
2013-08-18 19:52:00,67.0,61.0,30.19,SSW,210,0.0,0.0,80,0.00,,,0.00,,2013-08-18 23:52:00,
2013-08-18 20:12:00,66.0,61.0,30.19,SSW,210,0.0,0.0,83,0.00,,,0.00,,2013-08-19 00:12:00,
2013-08-18 20:21:00,64.0,60.0,30.19,SSW,210,0.0,0.0,86,0.00,,,0.00,,2013-08-19 00:21:00,
2013-08-18 20:42:00,64.0,60.0,30.19,SSW,210,0.0,0.0,87,0.00,,,0.00,,2013-08-19 00:42:00,
2013-08-18 20:52:00,63.0,59.0,30.19,SSW,210,0.0,0.0,88,0.00,,,0.00,,2013-08-19 00:52:00,
2013-08-18 21:11:00,62.0,59.0,30.19,SSW,210,0.0,0.0,89,0.00,,,0.00,,2013-08-19 01:11:00,
2013-08-18 21:22:00,62.0,59.0,30.19,SSW,210,0.0,0.0,90,0.00,,,0.00,,2013-08-19 01:22:00,
2013-08-18 21:42:00,62.0,59.0,30.19,SSW,210,0.0,0.0,91,0.00,,,0.00,,2013-08-19 01:42:00,
2013-08-18 21:52:00,61.0,59.0,30.20,SSW,210,0.0,0.0,92,0.00,,,0.00,,2013-08-19 01:52:00,
2013-08-18 22:11:00,61.0,59.0,30.20,SSW,210,0.0,0.0,93,0.00,,,0.00,,2013-08-19 02:11:00,
2013-08-18 22:22:00,61.0,59.0,30.20,SSW,210,0.0,0.0,93,0.00,,,0.00,,2013-08-19 02:22:00,
2013-08-18 22:42:00,60.0,58.0,30.19,SSW,210,0.0,0.0,92,0.00,,,0.00,,2013-08-19 02:42:00,
2013-08-18 22:52:00,60.0,58.0,30.19,SSW,210,0.0,0.0,92,0.00,,,0.00,,2013-08-19 02:52:00,
2013-08-18 23:11:00,60.0,57.0,30.19,SSW,210,0.0,0.0,91,0.00,,,0.00,,2013-08-19 03:11:00,
2013-08-18 23:21:00,60.0,57.0,30.19,SSW,212,0.0,0.0,91,0.00,,,0.00,,2013-08-19 03:21:00,
2013-08-18 23:42:00,60.0,57.0,30.18,SSW,213,0.0,0.0,91,0.00,,,0.00,,2013-08-19 03:42:00,
2013-08-18 23:53:00,60.0,57.0,30.19,SSW,213,0.0,0.0,91,0.00,,,0.00,,2013-08-19 03:53:00,